createdAt,value
2022-12-17T00:01:48.843Z,6.37
2022-12-17T00:04:33.967Z,6.30
2022-12-17T00:07:19.171Z,6.33
2022-12-17T00:10:04.451Z,6.07
2022-12-17T00:12:49.900Z,6.00
2022-12-17T00:15:34.953Z,6.23
2022-12-17T00:18:26.270Z,6.43
2022-12-17T00:21:15.405Z,6.60
2022-12-17T00:24:01.184Z,6.93
2022-12-17T00:26:46.587Z,6.07
2022-12-17T00:29:31.787Z,6.20
2022-12-17T00:32:17.191Z,6.37
2022-12-17T00:35:02.179Z,6.60
2022-12-17T00:37:47.505Z,6.87
2022-12-17T00:40:32.693Z,6.57
2022-12-17T00:43:27.484Z,6.40
2022-12-17T00:46:12.719Z,6.60
2022-12-17T00:48:57.961Z,6.20
2022-12-17T00:51:43.199Z,6.50
2022-12-17T00:54:28.395Z,6.10
2022-12-17T00:57:13.633Z,6.50
2022-12-17T00:59:58.866Z,6.30
2022-12-17T01:02:44.264Z,6.40
2022-12-17T01:05:29.614Z,5.90
2022-12-17T01:08:14.967Z,6.73
2022-12-17T01:11:00.073Z,7.37
2022-12-17T01:13:45.099Z,6.77
2022-12-17T01:16:31.903Z,6.53
2022-12-17T01:19:17.636Z,7.00
2022-12-17T01:22:03.871Z,6.60
2022-12-17T01:24:48.793Z,6.33
2022-12-17T01:27:33.915Z,6.80
2022-12-17T01:30:19.140Z,6.83
2022-12-17T01:33:04.127Z,6.93
2022-12-17T01:35:49.320Z,6.83
2022-12-17T01:38:37.034Z,6.53
2022-12-17T01:41:23.125Z,6.77
2022-12-17T01:44:08.403Z,7.30
2022-12-17T01:46:59.428Z,6.40
2022-12-17T01:49:44.632Z,6.33
2022-12-17T01:52:32.899Z,6.87
2022-12-17T01:55:18.371Z,6.10
2022-12-17T01:58:03.523Z,6.43
2022-12-17T02:00:48.819Z,6.57
2022-12-17T02:03:35.443Z,7.17
2022-12-17T02:06:30.981Z,7.03
2022-12-17T02:09:19.538Z,6.93
2022-12-17T02:12:29.085Z,6.70
2022-12-17T02:15:24.933Z,6.60
2022-12-17T02:18:15.246Z,6.80
2022-12-17T02:21:07.748Z,6.63
2022-12-17T02:23:56.539Z,7.13
2022-12-17T02:26:54.051Z,6.97
2022-12-17T02:29:39.854Z,6.37
2022-12-17T02:32:25.007Z,6.63
2022-12-17T02:35:10.441Z,5.97
2022-12-17T02:37:55.625Z,7.23
2022-12-17T02:40:41.386Z,6.43
2022-12-17T02:43:26.983Z,6.83
2022-12-17T02:46:12.285Z,6.90
2022-12-17T02:48:57.570Z,7.07
2022-12-17T02:51:50.706Z,6.80
2022-12-17T02:54:35.899Z,7.27
2022-12-17T02:57:21.273Z,7.30
2022-12-17T03:00:06.417Z,7.07
2022-12-17T03:02:51.799Z,7.73
2022-12-17T03:05:44.935Z,7.17
2022-12-17T03:08:30.804Z,7.50
2022-12-17T03:11:15.685Z,7.20
2022-12-17T03:14:00.807Z,7.70
2022-12-17T03:16:46.173Z,7.70
2022-12-17T03:19:31.022Z,6.90
2022-12-17T03:22:15.958Z,6.70
2022-12-17T03:25:01.143Z,7.57
2022-12-17T03:27:46.463Z,6.67
2022-12-17T03:30:35.752Z,6.53
2022-12-17T03:33:21.301Z,6.97
2022-12-17T03:36:06.586Z,7.17
2022-12-17T03:38:56.174Z,6.50
2022-12-17T03:41:41.351Z,7.50
2022-12-17T03:44:26.440Z,6.80
2022-12-17T03:47:11.550Z,7.33
2022-12-17T03:49:56.818Z,7.43
2022-12-17T03:52:42.107Z,7.37
2022-12-17T03:55:27.273Z,7.53
2022-12-17T03:58:12.460Z,6.83
2022-12-17T04:00:57.768Z,7.53
2022-12-17T04:03:42.993Z,7.43
2022-12-17T04:06:28.349Z,7.53
2022-12-17T04:09:13.329Z,7.23
2022-12-17T04:11:58.918Z,6.90
2022-12-17T04:14:43.947Z,7.70
2022-12-17T04:17:29.172Z,7.97
2022-12-17T04:20:14.333Z,7.20
2022-12-17T04:22:59.658Z,7.57
2022-12-17T04:25:44.817Z,7.53
2022-12-17T04:28:32.826Z,7.03
2022-12-17T04:31:18.075Z,7.30
2022-12-17T04:34:03.283Z,7.30
2022-12-17T04:36:48.538Z,7.30
2022-12-17T04:39:33.744Z,7.87
2022-12-17T04:42:18.739Z,8.10
2022-12-17T04:45:03.947Z,7.67
2022-12-17T04:47:49.232Z,7.50
2022-12-17T04:50:34.527Z,8.30
2022-12-17T04:53:23.310Z,7.80
2022-12-17T04:56:08.545Z,6.90
2022-12-17T04:58:53.718Z,7.33
2022-12-17T05:01:38.975Z,7.47
2022-12-17T05:04:24.344Z,7.93
2022-12-17T05:07:09.527Z,7.80
2022-12-17T05:09:54.745Z,7.57
2022-12-17T05:12:40.009Z,7.20
2022-12-17T05:15:25.676Z,7.20
2022-12-17T05:18:10.930Z,7.03
2022-12-17T05:20:56.090Z,7.53
2022-12-17T05:23:41.385Z,7.50
2022-12-17T05:26:32.643Z,6.73
2022-12-17T05:29:17.964Z,7.67
2022-12-17T05:32:03.018Z,7.37
2022-12-17T05:34:48.463Z,7.73
2022-12-17T05:37:33.635Z,7.23
2022-12-17T05:40:18.991Z,7.77
2022-12-17T05:43:21.068Z,8.07
2022-12-17T05:46:06.416Z,7.07
2022-12-17T05:48:51.635Z,7.80
2022-12-17T05:51:38.841Z,7.33
2022-12-17T05:54:24.554Z,7.57
2022-12-17T05:57:09.656Z,7.53
2022-12-17T05:59:54.915Z,7.13
2022-12-17T06:02:40.290Z,7.83
2022-12-17T06:05:26.208Z,7.80
2022-12-17T06:08:11.409Z,7.57
2022-12-17T06:10:56.839Z,7.33
2022-12-17T06:13:42.018Z,7.63
2022-12-17T06:16:27.285Z,7.47
2022-12-17T06:19:12.395Z,7.20
2022-12-17T06:21:57.589Z,6.53
2022-12-17T06:24:45.896Z,6.53
2022-12-17T06:27:31.515Z,6.53
2022-12-17T06:30:18.815Z,6.53
2022-12-17T06:33:24.177Z,6.93
2022-12-17T06:36:11.035Z,6.90
2022-12-17T06:38:56.093Z,7.67
2022-12-17T06:41:41.180Z,7.07
2022-12-17T06:44:26.384Z,7.07
2022-12-17T06:47:11.700Z,7.77
2022-12-17T06:50:01.083Z,6.80
2022-12-17T06:52:46.496Z,7.27
2022-12-17T06:55:31.888Z,7.03
2022-12-17T06:58:17.967Z,7.23
2022-12-17T07:01:03.682Z,6.90
2022-12-17T07:03:48.789Z,7.37
2022-12-17T07:06:34.015Z,6.97
2022-12-17T07:09:19.184Z,6.90
2022-12-17T07:12:04.504Z,7.37
2022-12-17T07:14:49.789Z,14.00
2022-12-17T07:17:34.905Z,17.00
2022-12-17T07:20:19.950Z,18.93
2022-12-17T07:23:05.315Z,19.93
2022-12-17T07:25:50.429Z,20.10
2022-12-17T07:28:37.312Z,20.20
2022-12-17T07:31:22.462Z,21.80
2022-12-17T07:34:15.329Z,21.73
2022-12-17T07:37:00.566Z,20.90
2022-12-17T07:39:45.943Z,21.13
2022-12-17T07:42:31.131Z,21.10
2022-12-17T07:45:16.191Z,19.63
2022-12-17T07:48:01.376Z,20.97
2022-12-17T07:50:46.620Z,19.07
2022-12-17T07:53:31.708Z,19.10
2022-12-17T07:56:16.818Z,18.47
2022-12-17T07:59:01.867Z,17.83
2022-12-17T08:01:47.005Z,18.17
2022-12-17T08:04:32.337Z,16.60
2022-12-17T08:07:17.511Z,17.03
2022-12-17T08:10:02.825Z,16.67
2022-12-17T08:12:47.853Z,16.23
2022-12-17T08:15:33.169Z,16.10
2022-12-17T08:18:26.116Z,15.50
2022-12-17T08:21:11.681Z,14.93
2022-12-17T08:23:56.786Z,14.37
2022-12-17T08:26:47.281Z,14.13
2022-12-17T08:29:33.071Z,14.37
2022-12-17T08:32:18.036Z,13.43
2022-12-17T08:35:03.284Z,13.57
2022-12-17T08:37:49.312Z,13.67
2022-12-17T08:40:34.484Z,12.50
2022-12-17T08:43:19.825Z,12.73
2022-12-17T08:46:08.488Z,12.23
2022-12-17T08:48:53.694Z,12.10
2022-12-17T08:51:38.768Z,11.53
2022-12-17T08:54:23.804Z,11.47
2022-12-17T08:57:09.059Z,18.67
2022-12-17T08:59:58.657Z,21.17
2022-12-17T09:02:43.906Z,21.23
2022-12-17T09:05:29.366Z,19.53
2022-12-17T09:08:21.567Z,19.20
2022-12-17T09:11:06.758Z,18.67
2022-12-17T09:13:52.204Z,16.90
2022-12-17T09:16:37.887Z,17.57
2022-12-17T09:19:23.079Z,16.43
2022-12-17T09:22:08.333Z,16.60
2022-12-17T09:24:53.498Z,16.57
2022-12-17T09:27:38.891Z,16.30
2022-12-17T09:30:24.548Z,16.27
2022-12-17T09:33:09.694Z,15.93
2022-12-17T09:35:58.452Z,15.60
2022-12-17T09:38:43.480Z,15.87
2022-12-17T09:41:45.426Z,14.93
2022-12-17T09:44:50.573Z,13.93
2022-12-17T09:48:07.036Z,14.17
2022-12-17T09:50:52.338Z,13.10
2022-12-17T09:53:41.567Z,13.77
2022-12-17T09:56:28.241Z,13.17
2022-12-17T09:59:17.934Z,12.33
2022-12-17T10:02:03.500Z,11.67
2022-12-17T10:04:53.434Z,12.17
2022-12-17T10:07:43.269Z,12.00
2022-12-17T10:10:37.158Z,12.07
2022-12-17T10:13:30.815Z,10.93
2022-12-17T10:16:16.011Z,11.43
2022-12-17T10:19:01.270Z,11.53
2022-12-17T10:21:47.496Z,11.57
2022-12-17T10:24:32.928Z,10.77
2022-12-17T10:27:18.266Z,10.60
2022-12-17T10:30:04.064Z,10.77
2022-12-17T10:32:49.261Z,10.30
2022-12-17T10:35:53.197Z,10.10
2022-12-17T10:38:46.242Z,10.13
2022-12-17T10:41:44.042Z,10.27
2022-12-17T10:44:41.877Z,10.17
2022-12-17T10:47:34.618Z,9.90
2022-12-17T10:50:20.881Z,10.40
2022-12-17T10:53:06.589Z,9.63
2022-12-17T10:55:52.471Z,10.53
2022-12-17T10:58:40.440Z,10.13
2022-12-17T11:01:28.037Z,10.73
2022-12-17T11:04:16.835Z,10.00
2022-12-17T11:07:04.739Z,9.30
2022-12-17T11:10:09.453Z,9.57
2022-12-17T11:13:03.282Z,9.47
2022-12-17T11:16:11.077Z,9.80
2022-12-17T11:19:17.721Z,9.50
2022-12-17T11:22:14.587Z,9.80
2022-12-17T11:25:05.464Z,8.67
2022-12-17T11:27:53.177Z,9.00
2022-12-17T11:30:38.322Z,9.20
2022-12-17T11:33:37.771Z,9.13
2022-12-17T11:36:39.186Z,9.33
2022-12-17T11:39:39.932Z,9.17
2022-12-17T11:42:37.539Z,9.40
2022-12-17T11:45:28.851Z,9.27
2022-12-17T11:48:28.673Z,9.37
2022-12-17T11:51:17.472Z,10.00
2022-12-17T11:54:26.698Z,9.67
2022-12-17T11:57:21.125Z,10.23
2022-12-17T12:00:20.808Z,9.70
2022-12-17T12:03:12.688Z,10.03
2022-12-17T12:06:01.068Z,9.73
2022-12-17T12:08:51.688Z,9.57
2022-12-17T12:11:51.703Z,12.33
2022-12-17T12:14:49.203Z,20.40
2022-12-17T12:17:37.523Z,22.20
2022-12-17T12:20:35.189Z,19.93
2022-12-17T12:23:26.844Z,19.50
2022-12-17T12:26:26.717Z,19.10
2022-12-17T12:29:24.315Z,19.07
2022-12-17T12:32:40.179Z,18.47
2022-12-17T12:35:26.867Z,17.47
2022-12-17T12:38:12.197Z,16.90
2022-12-17T12:41:01.333Z,16.87
2022-12-17T12:44:07.099Z,15.93
2022-12-17T12:47:02.551Z,16.03
2022-12-17T12:50:11.087Z,14.90
2022-12-17T12:52:56.344Z,14.43
2022-12-17T12:55:41.718Z,13.63
2022-12-17T12:58:52.704Z,13.97
2022-12-17T13:01:38.685Z,14.00
2022-12-17T13:04:48.140Z,13.10
2022-12-17T13:07:26.508Z,13.07
2022-12-17T13:09:54.992Z,19.87
2022-12-17T13:12:28.362Z,25.77
2022-12-17T13:14:59.414Z,27.40
2022-12-17T13:17:32.539Z,26.70
2022-12-17T13:20:22.675Z,24.37
2022-12-17T13:22:53.868Z,24.80
2022-12-17T13:25:23.639Z,23.47
2022-12-17T13:27:50.315Z,23.07
2022-12-17T13:30:36.615Z,22.23
2022-12-17T13:33:22.144Z,22.50
2022-12-17T13:35:52.901Z,21.37
2022-12-17T13:38:44.738Z,21.20
2022-12-17T13:41:16.303Z,19.33
2022-12-17T13:43:49.565Z,20.37
2022-12-17T13:46:46.743Z,19.53
2022-12-17T13:49:28.368Z,19.13
2022-12-17T13:52:11.593Z,18.07
2022-12-17T13:54:38.569Z,18.37
2022-12-17T13:57:23.000Z,16.50
2022-12-17T13:59:53.731Z,16.93
2022-12-17T14:02:34.051Z,16.30
2022-12-17T14:05:07.468Z,16.00
2022-12-17T14:07:35.536Z,15.73
2022-12-17T14:10:02.442Z,15.60
2022-12-17T14:12:30.099Z,14.50
2022-12-17T14:15:00.161Z,15.77
2022-12-17T14:17:42.500Z,15.17
2022-12-17T14:20:13.375Z,14.20
2022-12-17T14:22:44.967Z,14.30
2022-12-17T14:25:22.740Z,14.07
2022-12-17T14:28:02.492Z,14.20
2022-12-17T14:31:02.581Z,14.03
2022-12-17T14:33:36.889Z,13.63
2022-12-17T14:36:17.529Z,13.07
2022-12-17T14:38:58.454Z,12.50
2022-12-17T14:41:43.686Z,13.20
2022-12-17T14:44:21.564Z,12.40
2022-12-17T14:46:48.392Z,12.17
2022-12-17T14:49:18.264Z,11.63
2022-12-17T14:51:45.128Z,11.70
2022-12-17T14:54:19.555Z,12.33
2022-12-17T14:56:47.513Z,11.30
2022-12-17T14:59:24.088Z,11.80
2022-12-17T15:01:55.947Z,11.70
2022-12-17T15:04:23.236Z,11.77
2022-12-17T15:06:49.913Z,11.20
2022-12-17T15:09:16.717Z,10.90
2022-12-17T15:11:43.251Z,11.03
2022-12-17T15:14:10.466Z,10.30
2022-12-17T15:16:37.475Z,11.87
2022-12-17T15:19:04.502Z,10.97
2022-12-17T15:21:31.341Z,11.20
2022-12-17T15:23:58.163Z,10.97
2022-12-17T15:26:24.882Z,10.17
2022-12-17T15:28:52.124Z,11.37
2022-12-17T15:31:24.492Z,11.80
2022-12-17T15:33:52.889Z,11.77
2022-12-17T15:36:19.576Z,11.13
2022-12-17T15:38:46.472Z,11.50
2022-12-17T15:41:31.692Z,10.80
2022-12-17T15:43:58.382Z,11.03
2022-12-17T15:46:25.299Z,11.40
2022-12-17T15:48:51.885Z,10.80
2022-12-17T15:51:21.016Z,11.27
2022-12-17T15:53:48.308Z,11.80
2022-12-17T15:56:22.849Z,11.20
2022-12-17T15:58:49.490Z,10.90
2022-12-17T16:01:16.121Z,11.07
2022-12-17T16:03:42.923Z,10.60
2022-12-17T16:06:09.612Z,10.00
2022-12-17T16:08:38.876Z,11.37
2022-12-17T16:11:09.391Z,10.80
2022-12-17T16:13:37.015Z,11.30
2022-12-17T16:16:04.542Z,11.33
2022-12-17T16:18:31.507Z,11.47
2022-12-17T16:21:08.136Z,11.30
2022-12-17T16:23:34.865Z,12.33
2022-12-17T16:26:02.322Z,11.53
2022-12-17T16:28:28.968Z,10.97
2022-12-17T16:31:00.351Z,12.33
2022-12-17T16:33:31.133Z,11.30
2022-12-17T16:36:02.100Z,11.60
2022-12-17T16:38:28.770Z,11.37
2022-12-17T16:40:56.631Z,11.33
2022-12-17T16:43:23.951Z,11.53
2022-12-17T16:45:51.134Z,11.50
2022-12-17T16:48:19.300Z,11.47
2022-12-17T16:50:46.159Z,11.40
2022-12-17T16:53:13.006Z,11.47
2022-12-17T16:55:46.613Z,10.70
2022-12-17T16:58:16.970Z,10.90
2022-12-17T17:06:31.833Z,12.53
2022-12-17T17:09:00.212Z,11.53
2022-12-17T17:11:26.820Z,12.00
2022-12-17T17:13:56.980Z,11.50
2022-12-17T17:16:24.386Z,12.00
2022-12-17T17:18:51.477Z,12.10
2022-12-17T17:21:25.242Z,11.77
2022-12-17T17:24:18.512Z,11.40
2022-12-17T17:26:47.561Z,11.90
2022-12-17T17:29:14.137Z,11.33
2022-12-17T17:34:27.272Z,11.37
2022-12-17T17:36:53.837Z,12.20
2022-12-17T17:39:20.370Z,11.57
2022-12-17T17:41:47.018Z,11.93
2022-12-17T17:44:13.994Z,11.57
2022-12-17T17:46:40.550Z,11.80
2022-12-17T17:49:07.646Z,11.57
2022-12-17T17:54:27.639Z,11.53
2022-12-17T17:56:54.209Z,11.43
2022-12-17T17:59:22.811Z,11.73
2022-12-17T18:01:51.996Z,12.10
2022-12-17T18:04:20.503Z,11.40
2022-12-17T18:07:09.088Z,11.70
2022-12-17T18:09:34.072Z,13.20
2022-12-17T18:12:20.634Z,11.87
2022-12-17T18:15:12.590Z,11.90
2022-12-17T18:17:33.709Z,12.53
2022-12-17T18:20:00.376Z,11.83
2022-12-17T18:22:28.406Z,12.37
2022-12-17T18:24:54.898Z,11.93
2022-12-17T18:27:21.467Z,12.57
2022-12-17T18:29:48.092Z,13.30
2022-12-17T18:32:14.677Z,12.80
2022-12-17T18:34:41.331Z,12.90
2022-12-17T18:37:08.015Z,13.27
2022-12-17T18:39:34.629Z,13.83
2022-12-17T18:42:19.969Z,13.97
2022-12-17T18:44:46.514Z,12.50
2022-12-17T18:47:13.117Z,13.07
2022-12-17T18:49:39.661Z,13.80
2022-12-17T18:52:07.022Z,13.83
2022-12-17T18:54:36.129Z,13.30
2022-12-17T18:57:02.929Z,13.57
2022-12-17T18:59:30.291Z,13.87
2022-12-17T19:01:57.140Z,13.30
2022-12-17T19:04:23.889Z,13.93
2022-12-17T19:06:53.792Z,13.30
2022-12-17T19:09:20.252Z,13.50
2022-12-17T19:11:46.901Z,13.63
2022-12-17T19:14:13.524Z,14.67
2022-12-17T19:16:40.132Z,14.30
2022-12-17T19:19:06.675Z,13.10
2022-12-17T19:21:33.839Z,14.30
2022-12-17T19:24:02.149Z,14.30
2022-12-17T19:26:29.096Z,13.70
2022-12-17T19:28:56.271Z,14.70
2022-12-17T19:31:24.330Z,14.20
2022-12-17T19:33:57.120Z,14.37
2022-12-17T19:36:28.306Z,14.27
2022-12-17T19:38:56.825Z,14.73
2022-12-17T19:41:23.491Z,13.60
2022-12-17T19:43:54.994Z,14.17
2022-12-17T19:46:21.735Z,14.70
2022-12-17T19:48:49.273Z,15.10
2022-12-17T19:51:21.885Z,14.70
2022-12-17T19:53:49.059Z,15.33
2022-12-17T19:56:25.854Z,14.57
2022-12-17T19:58:54.229Z,14.97
2022-12-17T20:01:27.678Z,15.43
2022-12-17T20:03:54.563Z,14.63
2022-12-17T20:06:22.506Z,15.53
2022-12-17T20:08:49.076Z,14.73
2022-12-17T20:11:34.355Z,14.80
2022-12-17T20:14:17.519Z,14.80
2022-12-17T20:16:52.130Z,15.27
2022-12-17T20:19:23.612Z,15.17
2022-12-17T20:21:50.276Z,15.60
2022-12-17T20:24:17.029Z,15.60
2022-12-17T20:26:43.875Z,15.47
2022-12-17T20:29:10.578Z,15.57
2022-12-17T20:31:37.466Z,16.37
2022-12-17T20:34:04.685Z,16.23
2022-12-17T20:36:31.319Z,16.13
2022-12-17T20:38:57.949Z,16.83
2022-12-17T20:41:26.119Z,17.37
2022-12-17T20:43:52.950Z,16.30
2022-12-17T20:46:20.052Z,15.80
2022-12-17T20:48:46.756Z,16.17
2022-12-17T20:51:21.958Z,15.80
2022-12-17T20:53:52.472Z,16.37
2022-12-17T20:56:22.552Z,17.07
2022-12-17T20:58:56.226Z,17.10
2022-12-17T21:01:23.812Z,16.30
2022-12-17T21:03:51.180Z,16.73
2022-12-17T21:06:19.805Z,16.40
2022-12-17T21:08:50.173Z,16.37
2022-12-17T21:11:21.284Z,17.37
2022-12-17T21:13:47.826Z,16.10
2022-12-17T21:16:18.276Z,17.47
2022-12-17T21:18:44.861Z,17.30
2022-12-17T21:21:13.965Z,17.17
2022-12-17T21:23:40.729Z,16.87
2022-12-17T21:26:17.436Z,16.40
2022-12-17T21:28:45.381Z,16.83
2022-12-17T21:31:23.568Z,17.97
2022-12-17T21:33:50.984Z,16.60
2022-12-17T21:36:18.913Z,18.50
2022-12-17T21:38:45.580Z,17.87
2022-12-17T21:41:14.079Z,18.60
2022-12-17T21:43:40.806Z,18.27
2022-12-17T21:46:08.042Z,16.97
2022-12-17T21:48:41.367Z,16.67
2022-12-17T21:51:09.791Z,18.67
2022-12-17T21:53:38.802Z,18.20
2022-12-17T21:56:06.765Z,18.37
2022-12-17T21:58:33.620Z,18.13
2022-12-17T22:01:17.016Z,18.63
2022-12-17T22:03:46.461Z,17.67
2022-12-17T22:06:14.875Z,17.13
2022-12-17T22:08:41.994Z,17.80
2022-12-17T22:11:10.303Z,18.70
2022-12-17T22:14:01.806Z,17.07
2022-12-17T22:16:36.792Z,17.10
2022-12-17T22:19:07.636Z,17.13
2022-12-17T22:21:35.163Z,17.57
2022-12-17T22:24:01.812Z,17.73
2022-12-17T22:26:28.494Z,17.33
2022-12-17T22:28:55.165Z,17.20
2022-12-17T22:31:40.577Z,17.87
2022-12-17T22:35:14.506Z,17.23
2022-12-17T22:38:53.840Z,17.73
2022-12-17T22:43:19.355Z,17.53
2022-12-17T22:44:42.606Z,17.33
2022-12-17T22:45:38.282Z,16.80
2022-12-17T22:48:05.495Z,17.23
2022-12-17T22:50:36.079Z,17.13
2022-12-17T22:53:13.781Z,17.37
2022-12-17T22:55:40.737Z,17.37
2022-12-17T22:58:07.639Z,17.17
2022-12-17T23:00:34.994Z,16.53
2022-12-17T23:03:01.729Z,18.40
2022-12-17T23:05:28.764Z,16.33
2022-12-17T23:07:55.425Z,17.23
2022-12-17T23:10:22.013Z,16.57
2022-12-17T23:12:51.507Z,16.77
2022-12-17T23:15:24.663Z,16.77
2022-12-17T23:17:52.316Z,16.13
2022-12-17T23:20:18.966Z,17.00
2022-12-17T23:22:45.556Z,16.37
2022-12-17T23:25:12.155Z,16.93
2022-12-17T23:27:38.702Z,16.77
2022-12-17T23:30:09.160Z,16.47
2022-12-17T23:32:35.798Z,17.13
2022-12-17T23:35:02.413Z,16.97
2022-12-17T23:37:29.129Z,16.70
2022-12-17T23:39:55.824Z,16.27
2022-12-17T23:42:22.389Z,15.87
2022-12-17T23:44:48.967Z,16.63
2022-12-17T23:47:15.496Z,15.97
2022-12-17T23:49:42.153Z,16.53
2022-12-17T23:52:08.859Z,14.93
2022-12-17T23:54:36.029Z,15.70
2022-12-17T23:57:02.657Z,15.43
2022-12-17T23:59:29.188Z,16.27
